createdAt,value
2019-01-31T00:04:53.244Z,4.60
2019-01-31T00:07:59.513Z,4.70
2019-01-31T00:11:05.710Z,5.73
2019-01-31T00:14:12.247Z,6.03
2019-01-31T00:17:18.794Z,4.23
2019-01-31T00:20:25.332Z,5.83
2019-01-31T00:23:31.517Z,6.35
2019-01-31T00:26:25.122Z,5.13
2019-01-31T00:29:31.367Z,6.37
2019-01-31T00:32:37.940Z,5.57
2019-01-31T00:35:44.493Z,5.27
2019-01-31T00:38:56.849Z,4.53
2019-01-31T00:41:59.463Z,5.43
2019-01-31T00:45:05.981Z,6.47
2019-01-31T00:47:56.581Z,5.33
2019-01-31T00:51:10.657Z,4.60
2019-01-31T00:54:04.537Z,4.17
2019-01-31T00:57:11.237Z,5.17
2019-01-31T01:00:26.104Z,5.53
2019-01-31T01:03:32.370Z,5.03
2019-01-31T01:06:38.299Z,5.53
2019-01-31T01:09:29.803Z,4.67
2019-01-31T01:12:36.324Z,4.87
2019-01-31T01:15:42.607Z,4.50
2019-01-31T01:18:48.875Z,4.13
2019-01-31T01:21:44.861Z,5.23
2019-01-31T01:28:27.306Z,8.50
2019-01-31T01:31:22.873Z,7.87
2019-01-31T02:25:27.525Z,4.73
2019-01-31T02:28:07.651Z,6.13
2019-01-31T02:34:33.716Z,4.50
2019-01-31T02:37:40.452Z,5.30
2019-01-31T02:40:46.948Z,6.13
2019-01-31T02:43:53.553Z,4.80
2019-01-31T02:47:00.102Z,4.80
2019-01-31T02:50:06.599Z,5.93
2019-01-31T02:53:13.156Z,5.27
2019-01-31T02:56:19.712Z,5.63
2019-01-31T02:59:09.857Z,5.80
2019-01-31T03:02:16.074Z,5.27
2019-01-31T03:05:22.588Z,5.13
2019-01-31T03:08:28.516Z,5.77
2019-01-31T03:15:18.101Z,5.33
2019-01-31T03:18:24.300Z,4.97
2019-01-31T03:21:30.818Z,4.97
2019-01-31T03:24:41.865Z,4.70
2019-01-31T03:27:48.376Z,4.90
2019-01-31T03:30:52.148Z,4.70
2019-01-31T03:33:58.409Z,3.90
2019-01-31T03:37:04.954Z,4.20
2019-01-31T03:40:11.480Z,4.10
2019-01-31T03:43:02.327Z,4.13
2019-01-31T03:45:39.584Z,4.40
2019-01-31T03:48:33.887Z,4.97
2019-01-31T03:51:29.052Z,5.60
2019-01-31T03:54:35.326Z,5.27
2019-01-31T03:57:48.119Z,5.03
2019-01-31T04:00:54.438Z,5.40
2019-01-31T04:04:00.989Z,5.87
2019-01-31T04:06:32.806Z,5.13
2019-01-31T04:09:01.169Z,6.20
2019-01-31T04:11:29.450Z,5.17
2019-01-31T04:13:57.617Z,5.83
2019-01-31T04:16:25.383Z,5.13
2019-01-31T04:22:02.521Z,5.27
2019-01-31T04:24:30.965Z,6.97
2019-01-31T04:29:53.782Z,5.30
2019-01-31T04:33:02.319Z,6.77
2019-01-31T04:35:30.512Z,5.17
2019-01-31T04:37:58.652Z,5.57
2019-01-31T04:41:06.883Z,4.90
2019-01-31T04:44:15.372Z,5.63
2019-01-31T04:46:43.796Z,4.93
2019-01-31T04:49:12.036Z,4.57
2019-01-31T04:51:39.718Z,6.23
2019-01-31T04:54:07.476Z,5.03
2019-01-31T04:56:35.648Z,5.40
2019-01-31T04:59:03.939Z,4.40
2019-01-31T05:02:12.443Z,4.10
2019-01-31T05:04:40.195Z,5.67
2019-01-31T05:07:08.712Z,5.20
2019-01-31T05:09:36.867Z,5.67
2019-01-31T05:15:00.319Z,5.17
2019-01-31T05:17:28.434Z,5.30
2019-01-31T05:19:56.626Z,6.53
2019-01-31T05:22:24.695Z,5.50
2019-01-31T05:24:52.804Z,4.60
2019-01-31T05:27:21.447Z,5.60
2019-01-31T05:29:49.620Z,5.10
2019-01-31T05:32:18.029Z,7.03
2019-01-31T05:34:46.200Z,5.90
2019-01-31T05:37:14.335Z,5.40
2019-01-31T05:39:42.808Z,4.90
2019-01-31T05:42:11.266Z,5.43
2019-01-31T05:44:39.523Z,11.83
2019-01-31T05:47:07.192Z,6.53
2019-01-31T05:49:35.692Z,7.80
2019-01-31T05:52:04.105Z,6.47
2019-01-31T05:54:32.504Z,5.33
2019-01-31T06:00:13.121Z,5.93
2019-01-31T06:03:20.930Z,5.77
2019-01-31T06:05:49.037Z,6.73
2019-01-31T06:11:26.192Z,5.17
2019-01-31T06:13:54.352Z,5.70
2019-01-31T06:16:22.893Z,6.17
2019-01-31T06:18:51.418Z,5.93
2019-01-31T06:21:19.612Z,5.47
2019-01-31T06:23:47.390Z,5.63
2019-01-31T06:26:15.789Z,4.93
2019-01-31T06:28:44.283Z,6.90
2019-01-31T06:31:11.973Z,7.13
2019-01-31T06:33:40.394Z,7.87
2019-01-31T06:36:08.832Z,8.47
2019-01-31T06:38:36.964Z,6.47
2019-01-31T06:41:05.034Z,6.10
2019-01-31T06:43:33.236Z,6.37
2019-01-31T06:46:01.635Z,7.07
2019-01-31T06:48:29.369Z,6.47
2019-01-31T06:50:57.451Z,5.57
2019-01-31T06:53:25.621Z,6.93
2019-01-31T06:55:53.121Z,5.73
2019-01-31T06:58:20.897Z,5.77
2019-01-31T07:00:49.046Z,5.70
2019-01-31T07:03:17.583Z,5.57
2019-01-31T07:05:45.546Z,5.10
2019-01-31T07:08:12.978Z,7.20
2019-01-31T07:10:40.395Z,5.73
2019-01-31T07:13:08.747Z,6.40
2019-01-31T07:15:36.946Z,5.93
2019-01-31T07:18:05.483Z,6.33
2019-01-31T07:20:33.641Z,12.83
2019-01-31T07:23:01.693Z,8.73
2019-01-31T07:25:29.522Z,8.20
2019-01-31T07:27:58.057Z,7.13
2019-01-31T07:30:26.864Z,9.13
2019-01-31T07:32:55.904Z,8.53
2019-01-31T07:35:24.380Z,7.87
2019-01-31T07:40:47.504Z,7.30
2019-01-31T07:43:15.701Z,5.20
2019-01-31T07:45:44.238Z,6.33
2019-01-31T07:48:12.294Z,7.00
2019-01-31T07:50:40.781Z,5.70
2019-01-31T07:53:08.498Z,5.83
2019-01-31T07:55:36.534Z,5.73
2019-01-31T07:58:05.227Z,4.80
2019-01-31T08:00:33.662Z,5.17
2019-01-31T08:03:02.095Z,4.27
2019-01-31T08:05:29.833Z,4.90
2019-01-31T08:11:06.744Z,4.80
2019-01-31T08:13:35.227Z,4.50
2019-01-31T08:19:38.536Z,3.87
2019-01-31T08:22:06.290Z,4.60
2019-01-31T08:24:33.953Z,4.53
2019-01-31T08:27:02.449Z,4.80
2019-01-31T08:29:31.030Z,4.50
2019-01-31T08:31:59.231Z,5.20
2019-01-31T08:34:27.416Z,5.00
2019-01-31T08:37:35.522Z,5.23
2019-01-31T08:40:43.983Z,4.53
2019-01-31T08:43:11.749Z,6.30
2019-01-31T08:45:39.826Z,5.30
2019-01-31T08:51:03.073Z,4.30
2019-01-31T08:53:31.690Z,3.90
2019-01-31T08:56:00.054Z,4.37
2019-01-31T08:59:08.556Z,4.30
2019-01-31T09:01:36.834Z,3.90
2019-01-31T09:06:59.826Z,3.53
2019-01-31T09:10:08.302Z,4.23
2019-01-31T09:12:36.888Z,5.47
2019-01-31T09:15:45.689Z,7.40
2019-01-31T09:18:14.197Z,3.67
2019-01-31T09:21:03.345Z,3.30
2019-01-31T09:24:09.936Z,3.17
2019-01-31T09:27:16.258Z,3.33
2019-01-31T09:30:27.697Z,5.40
2019-01-31T09:33:33.914Z,4.87
2019-01-31T09:36:40.100Z,3.70
2019-01-31T09:39:46.655Z,2.70
2019-01-31T09:42:36.741Z,2.63
2019-01-31T09:45:27.939Z,2.10
2019-01-31T09:48:20.185Z,2.57
2019-01-31T09:51:26.688Z,2.30
2019-01-31T09:54:33.228Z,3.10
2019-01-31T09:57:39.775Z,4.20
2019-01-31T10:00:45.968Z,2.97
2019-01-31T10:03:52.164Z,2.80
2019-01-31T10:06:58.677Z,3.70
2019-01-31T10:10:05.291Z,2.50
2019-01-31T10:13:11.572Z,1.93
2019-01-31T10:16:17.696Z,2.50
2019-01-31T10:19:24.227Z,1.90
2019-01-31T10:22:30.824Z,1.97
2019-01-31T10:25:07.808Z,1.73
2019-01-31T10:28:14.298Z,1.73
2019-01-31T10:31:20.647Z,2.10
2019-01-31T10:34:27.199Z,3.07
2019-01-31T10:37:33.708Z,1.80
2019-01-31T10:40:40.238Z,2.00
2019-01-31T10:43:46.754Z,1.73
2019-01-31T10:46:36.023Z,1.90
2019-01-31T10:49:27.018Z,2.00
2019-01-31T10:52:33.518Z,1.97
2019-01-31T10:55:39.424Z,2.50
2019-01-31T10:58:45.633Z,2.23
2019-01-31T11:01:52.178Z,2.43
2019-01-31T11:04:47.623Z,2.60
2019-01-31T11:07:54.157Z,2.30
2019-01-31T11:11:00.668Z,2.47
2019-01-31T11:17:27.078Z,2.23
2019-01-31T11:20:20.780Z,5.50
2019-01-31T11:23:26.979Z,2.30
2019-01-31T11:26:33.225Z,2.23
2019-01-31T11:29:25.332Z,2.67
2019-01-31T11:32:31.891Z,2.00
2019-01-31T11:35:38.077Z,2.23
2019-01-31T11:38:32.272Z,2.33
2019-01-31T11:41:24.152Z,1.80
2019-01-31T11:44:19.006Z,2.27
2019-01-31T11:47:10.534Z,2.70
2019-01-31T11:50:16.743Z,2.67
2019-01-31T11:53:23.261Z,1.90
2019-01-31T11:56:29.805Z,3.20
2019-01-31T11:58:59.944Z,3.37
2019-01-31T12:01:28.180Z,4.00
2019-01-31T12:03:59.733Z,5.63
2019-01-31T12:06:28.223Z,5.93
2019-01-31T12:08:56.867Z,4.40
2019-01-31T12:11:25.407Z,3.70
2019-01-31T12:13:53.626Z,3.00
2019-01-31T12:16:21.763Z,4.10
2019-01-31T12:18:50.342Z,2.60
2019-01-31T12:21:18.299Z,2.47
2019-01-31T12:23:45.873Z,2.40
2019-01-31T12:26:14.498Z,2.47
2019-01-31T12:28:43.027Z,1.97
2019-01-31T12:31:11.267Z,1.87
2019-01-31T12:33:39.737Z,2.20
2019-01-31T12:36:48.269Z,2.87
2019-01-31T12:39:16.017Z,2.00
2019-01-31T12:42:24.117Z,1.80
2019-01-31T12:44:52.391Z,29.83
2019-01-31T12:47:20.977Z,15.97
2019-01-31T12:50:29.149Z,50.07
2019-01-31T12:52:57.246Z,10.27
2019-01-31T12:55:25.319Z,3.83
2019-01-31T12:57:53.506Z,5.50
2019-01-31T13:00:41.024Z,4.40
2019-01-31T13:03:49.126Z,4.30
2019-01-31T13:06:17.600Z,3.50
2019-01-31T13:09:05.296Z,3.50
2019-01-31T13:11:33.399Z,2.70
2019-01-31T13:14:41.875Z,3.63
2019-01-31T13:17:50.417Z,4.40
2019-01-31T13:20:20.575Z,7.17
2019-01-31T13:22:49.376Z,10.60
2019-01-31T13:25:57.922Z,11.90
2019-01-31T13:29:06.532Z,4.43
2019-01-31T13:31:34.439Z,3.23
2019-01-31T13:34:03.213Z,2.80
2019-01-31T13:36:31.469Z,2.20
2019-01-31T13:38:59.644Z,2.60
2019-01-31T13:41:28.134Z,2.60
2019-01-31T13:43:57.657Z,2.40
2019-01-31T13:46:26.176Z,3.10
2019-01-31T13:48:53.938Z,2.70
2019-01-31T13:51:22.604Z,2.67
2019-01-31T13:53:50.360Z,2.87
2019-01-31T13:59:27.302Z,2.13
2019-01-31T14:01:55.929Z,2.47
2019-01-31T14:05:04.181Z,3.40
2019-01-31T14:07:32.814Z,1.90
2019-01-31T14:10:01.116Z,4.53
2019-01-31T14:13:11.500Z,1.90
2019-01-31T14:15:39.824Z,1.70
2019-01-31T14:21:02.583Z,1.73
2019-01-31T14:26:26.419Z,1.87
2019-01-31T14:28:55.070Z,2.30
2019-01-31T14:31:23.640Z,2.10
2019-01-31T14:34:31.454Z,2.80
2019-01-31T14:36:59.600Z,2.70
2019-01-31T14:39:28.231Z,3.23
2019-01-31T14:42:36.834Z,8.80
2019-01-31T14:45:44.707Z,4.10
2019-01-31T14:48:13.279Z,3.10
2019-01-31T14:53:37.087Z,2.23
2019-01-31T14:56:05.333Z,2.80
2019-01-31T14:59:13.473Z,3.00
2019-01-31T15:01:41.548Z,3.17
2019-01-31T15:04:09.694Z,2.40
2019-01-31T15:06:37.887Z,2.27
2019-01-31T15:09:47.962Z,2.30
2019-01-31T15:12:16.182Z,2.83
2019-01-31T15:14:43.596Z,2.87
2019-01-31T15:17:12.133Z,3.20
2019-01-31T15:19:40.747Z,3.37
2019-01-31T15:25:44.240Z,3.37
2019-01-31T15:28:52.875Z,3.80
2019-01-31T15:32:01.430Z,4.60
2019-01-31T15:34:29.528Z,3.63
2019-01-31T15:36:57.680Z,3.63
2019-01-31T15:40:06.187Z,3.63
2019-01-31T15:45:29.416Z,4.60
2019-01-31T15:48:37.682Z,4.33
2019-01-31T15:51:05.449Z,4.70
2019-01-31T15:56:13.630Z,4.83
2019-01-31T15:58:41.516Z,5.10
2019-01-31T16:01:11.655Z,5.43
2019-01-31T16:03:39.510Z,5.67
2019-01-31T16:06:07.599Z,5.67
2019-01-31T16:08:35.782Z,5.47
2019-01-31T16:11:44.236Z,5.67
2019-01-31T16:14:12.043Z,5.17
2019-01-31T16:17:20.609Z,5.17
2019-01-31T16:19:48.741Z,6.10
2019-01-31T16:22:16.767Z,7.80
2019-01-31T16:24:44.951Z,9.60
2019-01-31T16:27:13.047Z,10.97
2019-01-31T16:30:21.183Z,9.30
2019-01-31T16:32:49.844Z,18.10
2019-01-31T16:35:58.000Z,19.67
2019-01-31T16:38:26.218Z,23.90
2019-01-31T16:40:54.510Z,25.33
2019-01-31T16:43:22.775Z,23.37
2019-01-31T16:45:50.901Z,22.63
2019-01-31T16:48:19.068Z,22.60
2019-01-31T16:51:27.673Z,26.07
2019-01-31T16:54:35.836Z,32.60
2019-01-31T16:57:44.343Z,23.23
2019-01-31T17:00:54.915Z,20.77
2019-01-31T17:03:23.391Z,16.57
2019-01-31T17:06:31.872Z,12.93
2019-01-31T17:09:00.035Z,7.10
2019-01-31T17:11:28.178Z,5.23
2019-01-31T17:13:56.414Z,6.03
2019-01-31T17:16:24.774Z,5.80
2019-01-31T17:18:54.926Z,11.87
2019-01-31T17:21:22.994Z,18.30
2019-01-31T17:24:31.093Z,17.13
2019-01-31T17:26:59.322Z,13.10
2019-01-31T17:30:07.874Z,13.47
2019-01-31T17:32:36.036Z,13.97
2019-01-31T17:35:44.358Z,13.93
2019-01-31T17:38:52.906Z,13.53
2019-01-31T17:42:04.217Z,13.83
2019-01-31T17:44:30.939Z,15.00
2019-01-31T17:49:33.856Z,16.10
2019-01-31T17:52:02.040Z,11.23
2019-01-31T17:54:30.202Z,9.97
2019-01-31T17:57:38.478Z,10.30
2019-01-31T18:00:49.198Z,8.63
2019-01-31T18:03:17.142Z,8.60
2019-01-31T18:05:44.845Z,8.77
2019-01-31T18:08:13.231Z,8.50
2019-01-31T18:10:41.343Z,7.93
2019-01-31T18:13:09.537Z,8.30
2019-01-31T18:15:42.201Z,8.27
2019-01-31T18:18:07.910Z,10.03
2019-01-31T18:20:36.259Z,13.17
2019-01-31T18:23:44.561Z,14.13
2019-01-31T18:26:12.309Z,9.23
2019-01-31T18:28:52.522Z,8.80
2019-01-31T18:31:20.420Z,5.03
2019-01-31T18:33:48.204Z,5.83
2019-01-31T18:36:16.778Z,5.60
2019-01-31T18:38:44.752Z,6.47
2019-01-31T18:41:12.541Z,7.33
2019-01-31T18:43:41.325Z,6.77
2019-01-31T18:46:09.486Z,6.63
2019-01-31T18:51:12.108Z,6.50
2019-01-31T18:53:40.777Z,7.27
2019-01-31T18:56:49.222Z,7.43
2019-01-31T18:59:57.436Z,6.37
2019-01-31T19:03:05.930Z,6.10
2019-01-31T19:05:34.552Z,7.80
2019-01-31T19:08:05.448Z,7.30
2019-01-31T19:10:42.783Z,7.47
2019-01-31T19:13:03.122Z,6.03
2019-01-31T19:18:26.151Z,6.27
2019-01-31T19:20:54.572Z,6.33
2019-01-31T19:23:22.655Z,6.37
2019-01-31T19:28:25.623Z,6.30
2019-01-31T19:30:54.127Z,6.13
2019-01-31T19:34:02.359Z,5.87
2019-01-31T19:36:31.059Z,5.97
2019-01-31T19:39:39.708Z,6.03
2019-01-31T19:42:08.188Z,5.57
2019-01-31T19:45:16.700Z,5.10
2019-01-31T19:47:52.200Z,5.17
2019-01-31T19:51:00.800Z,5.30
2019-01-31T19:53:28.934Z,5.10
2019-01-31T19:56:37.541Z,5.03
2019-01-31T20:02:55.061Z,4.57
2019-01-31T20:06:03.553Z,4.43
2019-01-31T20:11:06.294Z,3.83
2019-01-31T20:14:14.232Z,3.87
2019-01-31T20:19:38.012Z,3.33
2019-01-31T20:22:46.660Z,3.73
2019-01-31T20:25:55.112Z,3.20
2019-01-31T20:28:35.829Z,3.30
2019-01-31T20:31:15.698Z,3.30
2019-01-31T20:33:43.812Z,3.07
2019-01-31T20:36:52.421Z,2.93
2019-01-31T20:39:20.982Z,3.17
2019-01-31T20:41:54.347Z,2.80
2019-01-31T20:47:33.636Z,3.03
2019-01-31T20:50:01.740Z,3.50
2019-01-31T20:55:04.267Z,3.70
2019-01-31T20:57:32.671Z,2.93
2019-01-31T21:00:40.424Z,5.37
2019-01-31T21:03:08.370Z,3.63
2019-01-31T21:06:17.026Z,4.13
2019-01-31T21:08:45.127Z,4.90
2019-01-31T21:11:13.210Z,4.50
2019-01-31T21:13:40.829Z,3.80
2019-01-31T21:16:09.860Z,3.77
2019-01-31T21:19:18.023Z,4.70
2019-01-31T21:24:55.791Z,2.97
2019-01-31T21:27:43.149Z,2.60
2019-01-31T21:30:53.636Z,2.47
2019-01-31T21:33:23.300Z,2.67
2019-01-31T21:36:31.939Z,2.80
2019-01-31T21:39:00.533Z,2.57
2019-01-31T21:44:22.021Z,2.77
2019-01-31T21:46:50.288Z,2.60
2019-01-31T21:49:37.065Z,3.07
2019-01-31T21:52:06.146Z,3.40
2019-01-31T21:55:14.956Z,2.73
2019-01-31T21:58:02.590Z,2.60
2019-01-31T22:00:50.002Z,3.40
2019-01-31T22:03:18.815Z,2.80
2019-01-31T22:05:47.798Z,2.90
2019-01-31T22:11:25.053Z,2.93
2019-01-31T22:13:53.923Z,2.83
2019-01-31T22:16:23.058Z,2.93
2019-01-31T22:19:10.706Z,3.07
2019-01-31T22:24:34.140Z,2.80
2019-01-31T22:27:21.601Z,3.17
2019-01-31T22:30:01.758Z,3.23
2019-01-31T22:33:10.282Z,3.20
2019-01-31T22:38:47.717Z,3.30
2019-01-31T22:41:15.112Z,4.00
2019-01-31T22:43:43.578Z,3.60
2019-01-31T22:46:11.268Z,3.40
2019-01-31T22:48:39.855Z,3.90
2019-01-31T22:51:07.940Z,3.40
2019-01-31T22:53:36.113Z,3.50
2019-01-31T22:56:44.633Z,3.37
2019-01-31T22:59:53.119Z,4.17
2019-01-31T23:02:21.527Z,3.97
2019-01-31T23:04:49.281Z,3.80
2019-01-31T23:07:17.857Z,3.93
2019-01-31T23:09:45.621Z,4.00
2019-01-31T23:12:13.751Z,3.57
2019-01-31T23:14:41.880Z,3.37
2019-01-31T23:17:10.011Z,3.33
2019-01-31T23:19:38.154Z,3.00
2019-01-31T23:22:06.526Z,3.30
2019-01-31T23:24:34.662Z,3.10
2019-01-31T23:27:02.482Z,3.07
2019-01-31T23:30:10.621Z,2.60
2019-01-31T23:32:39.062Z,3.00
2019-01-31T23:35:07.432Z,2.90
2019-01-31T23:38:15.543Z,2.67
2019-01-31T23:40:44.111Z,2.70
2019-01-31T23:46:21.397Z,2.67
2019-01-31T23:49:29.188Z,3.23
2019-01-31T23:51:56.631Z,2.37
2019-01-31T23:54:25.035Z,2.77
2019-01-31T23:56:53.565Z,2.83
